Time;durP1;ratioP1;P1;durP2;ratioP2;P2;SDS_P1;SDS_P2;PMS_P1;PMS_P2;Temp;Humidity;BMP_temperature;BMP_pressure;BME280_temperature;BME280_humidity;BME280_pressure;Samples;Min_cycle;Max_cycle;Signal;HPM_P1;HPM_P2
2021/08/08 00:00:41;;;;;;;18.40;9.60;;;;;;;;;;2130185;27;20054;-46
2021/08/08 00:01:42;;;;;;;13.90;9.50;;;;;;;;;;2130224;27;20164;-45
2021/08/08 00:02:44;;;;;;;15.45;10.48;;;;;;;;;;2131592;27;20134;-45
2021/08/08 00:03:45;;;;;;;14.60;9.50;;;;;;;;;;2129793;27;20078;-47
2021/08/08 00:06:05;;;;;;;13.90;9.70;;;;;;;;;;2128885;27;20675;-46
2021/08/08 00:07:06;;;;;;;12.23;9.23;;;;;;;;;;2129700;27;20529;-46
2021/08/08 00:08:08;;;;;;;12.37;9.30;;;;;;;;;;2131654;27;20039;-45
2021/08/08 00:09:09;;;;;;;13.73;9.90;;;;;;;;;;2131271;27;20282;-47
2021/08/08 00:10:12;;;;;;;14.23;9.37;;;;;;;;;;2129650;27;20051;-47
2021/08/08 00:11:13;;;;;;;15.98;10.23;;;;;;;;;;2131582;27;20047;-47
2021/08/08 00:12:14;;;;;;;16.13;10.00;;;;;;;;;;2130536;27;20058;-45
2021/08/08 00:13:15;;;;;;;15.75;9.82;;;;;;;;;;2130398;27;20039;-47
2021/08/08 00:14:16;;;;;;;13.23;9.47;;;;;;;;;;2131684;27;20130;-47
2021/08/08 00:15:18;;;;;;;14.25;10.18;;;;;;;;;;2129476;27;20290;-49
2021/08/08 00:16:19;;;;;;;19.40;10.27;;;;;;;;;;2131123;27;20043;-46
2021/08/08 00:17:20;;;;;;;14.05;9.52;;;;;;;;;;2131498;27;20042;-48
2021/08/08 00:18:21;;;;;;;12.63;9.30;;;;;;;;;;2128465;27;20103;-45
2021/08/08 00:19:22;;;;;;;13.07;9.77;;;;;;;;;;2131114;27;20050;-47
2021/08/08 00:20:24;;;;;;;13.32;9.95;;;;;;;;;;2131546;27;20095;-46
2021/08/08 00:21:25;;;;;;;18.98;9.07;;;;;;;;;;2129458;27;20147;-47
2021/08/08 00:22:26;;;;;;;19.57;9.87;;;;;;;;;;2131211;27;20042;-46
2021/08/08 00:23:27;;;;;;;14.35;9.52;;;;;;;;;;2131564;27;20090;-47
2021/08/08 00:24:29;;;;;;;14.38;9.60;;;;;;;;;;2127549;27;20043;-46
2021/08/08 00:25:30;;;;;;;13.70;9.30;;;;;;;;;;2131247;27;20439;-46
2021/08/08 00:26:31;;;;;;;13.03;9.33;;;;;;;;;;2131486;27;20383;-45
2021/08/08 00:27:33;;;;;;;13.38;9.57;;;;;;;;;;2130158;27;20043;-49
2021/08/08 00:28:35;;;;;;;11.73;8.95;;;;;;;;;;2130374;27;20451;-45
2021/08/08 00:29:35;;;;;;;14.73;9.98;;;;;;;;;;2131591;27;20075;-46
2021/08/08 00:30:37;;;;;;;14.38;9.73;;;;;;;;;;2129659;27;20329;-47
2021/08/08 00:31:38;;;;;;;13.43;9.60;;;;;;;;;;2131405;27;20046;-49
2021/08/08 00:32:39;;;;;;;12.27;9.20;;;;;;;;;;2131268;27;20047;-46
2021/08/08 00:33:40;;;;;;;14.25;10.10;;;;;;;;;;2127723;27;20047;-47
2021/08/08 00:34:41;;;;;;;13.93;9.60;;;;;;;;;;2131503;27;20042;-46
2021/08/08 00:35:42;;;;;;;14.45;9.30;;;;;;;;;;2128459;27;20049;-47
2021/08/08 00:36:43;;;;;;;17.03;9.67;;;;;;;;;;2128997;27;20420;-47
2021/08/08 00:37:44;;;;;;;16.98;10.52;;;;;;;;;;2131429;27;20133;-46
2021/08/08 00:38:46;;;;;;;13.50;10.20;;;;;;;;;;2130408;27;20436;-47
2021/08/08 00:39:47;;;;;;;12.88;9.15;;;;;;;;;;2129332;27;20774;-47
2021/08/08 00:40:48;;;;;;;15.25;10.35;;;;;;;;;;2131247;27;20468;-47
2021/08/08 00:41:50;;;;;;;11.70;9.48;;;;;;;;;;2131019;27;20069;-48
2021/08/08 00:42:51;;;;;;;10.48;9.15;;;;;;;;;;2129691;27;20089;-47
2021/08/08 00:43:52;;;;;;;14.10;9.60;;;;;;;;;;2131270;27;20125;-49
2021/08/08 00:44:53;;;;;;;12.40;9.05;;;;;;;;;;2130209;27;20154;-46
2021/08/08 00:45:54;;;;;;;13.25;9.35;;;;;;;;;;2130379;27;20051;-46
2021/08/08 00:46:55;;;;;;;15.03;10.03;;;;;;;;;;2131254;27;20046;-46
2021/08/08 00:47:56;;;;;;;13.85;9.88;;;;;;;;;;2129176;27;20558;-48
2021/08/08 00:48:58;;;;;;;14.87;10.47;;;;;;;;;;2130840;27;20464;-49
2021/08/08 00:49:59;;;;;;;12.52;9.90;;;;;;;;;;2131343;27;20049;-46
2021/08/08 00:51:00;;;;;;;14.23;9.70;;;;;;;;;;2129855;27;20039;-48
2021/08/08 00:52:00;;;;;;;12.73;10.13;;;;;;;;;;2130494;27;20042;-48
2021/08/08 00:53:02;;;;;;;14.57;9.80;;;;;;;;;;2122746;27;20464;-47
2021/08/08 00:54:03;;;;;;;11.45;9.68;;;;;;;;;;2125522;27;20182;-48
2021/08/08 00:55:05;;;;;;;14.63;9.45;;;;;;;;;;2131454;27;20482;-47
2021/08/08 00:56:06;;;;;;;13.15;9.27;;;;;;;;;;2131909;27;20080;-46
2021/08/08 00:57:07;;;;;;;13.82;10.18;;;;;;;;;;2129411;27;20047;-46
2021/08/08 00:58:08;;;;;;;11.83;10.00;;;;;;;;;;2130854;27;20505;-48
2021/08/08 00:59:09;;;;;;;13.30;9.65;;;;;;;;;;2131801;27;20495;-47
2021/08/08 01:00:12;;;;;;;12.68;9.30;;;;;;;;;;2129616;27;20043;-46
2021/08/08 01:01:15;;;;;;;15.25;9.57;;;;;;;;;;2130816;27;20530;-49
2021/08/08 01:02:18;;;;;;;12.02;9.45;;;;;;;;;;2131651;27;20047;-49
2021/08/08 01:03:21;;;;;;;11.73;9.98;;;;;;;;;;2129368;27;20095;-49
2021/08/08 01:04:26;;;;;;;12.30;10.32;;;;;;;;;;2131711;27;20046;-49
2021/08/08 01:05:30;;;;;;;13.50;9.93;;;;;;;;;;2131421;27;20129;-47
2021/08/08 01:06:34;;;;;;;12.88;9.05;;;;;;;;;;2129753;27;20130;-49
2021/08/08 01:07:38;;;;;;;13.20;9.95;;;;;;;;;;2131764;27;20550;-46
2021/08/08 01:08:41;;;;;;;15.10;9.70;;;;;;;;;;2130316;27;20051;-47
2021/08/08 01:09:45;;;;;;;13.63;9.63;;;;;;;;;;2130378;27;20129;-49
2021/08/08 01:10:46;;;;;;;10.93;9.05;;;;;;;;;;2131736;27;20043;-47
2021/08/08 01:11:48;;;;;;;12.68;10.25;;;;;;;;;;2129646;27;20402;-46
2021/08/08 01:12:49;;;;;;;13.57;9.85;;;;;;;;;;2130451;27;20487;-46
2021/08/08 01:13:51;;;;;;;14.93;10.10;;;;;;;;;;2131573;27;20137;-46
2021/08/08 01:14:52;;;;;;;13.95;10.00;;;;;;;;;;2129658;27;20073;-45
2021/08/08 01:15:53;;;;;;;14.77;9.93;;;;;;;;;;2130429;27;20046;-49
2021/08/08 01:16:55;;;;;;;16.48;10.10;;;;;;;;;;2131748;27;20186;-47
2021/08/08 01:17:58;;;;;;;12.95;9.50;;;;;;;;;;2129393;27;20039;-46
2021/08/08 01:18:59;;;;;;;15.23;10.80;;;;;;;;;;2131489;27;20133;-48
2021/08/08 01:20:01;;;;;;;15.07;9.30;;;;;;;;;;2131631;27;20410;-47
2021/08/08 01:21:01;;;;;;;;;;;;;;;;;;2128562;27;20138;-47
2021/08/08 01:22:03;;;;;;;14.90;9.63;;;;;;;;;;2131418;27;20404;-48
2021/08/08 01:23:04;;;;;;;12.10;9.77;;;;;;;;;;2131661;27;20042;-45
2021/08/08 01:24:06;;;;;;;14.95;10.70;;;;;;;;;;2129292;27;20046;-47
2021/08/08 01:25:07;;;;;;;;;;;;;;;;;;2132026;27;20117;-48
2021/08/08 01:26:08;;;;;;;12.88;9.55;;;;;;;;;;2131606;27;19923;-48
2021/08/08 01:27:09;;;;;;;14.02;9.75;;;;;;;;;;2129062;27;20051;-48
2021/08/08 01:28:10;;;;;;;13.40;9.13;;;;;;;;;;2131733;27;20461;-46
2021/08/08 01:29:11;;;;;;;14.75;9.20;;;;;;;;;;2131110;27;20129;-46
2021/08/08 01:30:12;;;;;;;14.98;9.10;;;;;;;;;;2129543;27;20133;-46
2021/08/08 01:31:13;;;;;;;12.55;9.30;;;;;;;;;;2131474;27;20543;-47
2021/08/08 01:32:14;;;;;;;14.20;9.83;;;;;;;;;;2131101;27;20170;-46
2021/08/08 01:33:15;;;;;;;12.20;9.68;;;;;;;;;;2129725;27;20123;-46
2021/08/08 01:34:16;;;;;;;14.23;9.60;;;;;;;;;;2131667;27;20039;-47
2021/08/08 01:35:17;;;;;;;22.05;9.82;;;;;;;;;;2130684;27;20118;-48
2021/08/08 01:36:19;;;;;;;12.87;9.20;;;;;;;;;;2130236;27;20118;-46
2021/08/08 01:37:20;;;;;;;13.15;9.85;;;;;;;;;;2131482;27;20443;-47
2021/08/08 01:38:21;;;;;;;13.57;9.75;;;;;;;;;;2129614;27;20046;-47
2021/08/08 01:39:23;;;;;;;12.80;9.38;;;;;;;;;;2131132;27;20122;-47
2021/08/08 01:40:26;;;;;;;13.18;9.43;;;;;;;;;;2131371;27;20159;-47
2021/08/08 01:41:28;;;;;;;13.60;9.30;;;;;;;;;;2130519;27;20448;-47
2021/08/08 01:42:30;;;;;;;14.80;10.02;;;;;;;;;;2130245;27;20427;-48
2021/08/08 01:43:31;;;;;;;;;;;;;;;;;;2132118;27;20047;-47
2021/08/08 01:44:35;;;;;;;13.65;9.75;;;;;;;;;;2129346;27;20386;-47
2021/08/08 01:45:39;;;;;;;12.85;9.23;;;;;;;;;;2131294;27;20046;-50
2021/08/08 01:46:40;;;;;;;10.95;8.65;;;;;;;;;;2131452;27;20482;-48
2021/08/08 01:47:53;;;;;;;13.68;9.82;;;;;;;;;;2128973;27;20143;-48
2021/08/08 01:48:56;;;;;;;17.67;10.13;;;;;;;;;;2131555;27;20102;-47
2021/08/08 01:49:58;;;;;;;12.50;9.27;;;;;;;;;;2130947;27;20164;-49
2021/08/08 01:50:59;;;;;;;14.10;9.82;;;;;;;;;;2129476;27;20042;-48
2021/08/08 01:52:01;;;;;;;11.30;9.40;;;;;;;;;;2131433;27;20129;-49
2021/08/08 01:53:03;;;;;;;10.70;9.43;;;;;;;;;;2123137;27;20125;-48
2021/08/08 01:54:03;;;;;;;12.30;9.10;;;;;;;;;;2129723;27;20054;-46
2021/08/08 01:55:06;;;;;;;13.48;9.15;;;;;;;;;;2131524;27;20483;-47
2021/08/08 01:56:07;;;;;;;12.05;9.32;;;;;;;;;;2129947;27;20142;-47
2021/08/08 01:57:09;;;;;;;12.77;9.90;;;;;;;;;;2130617;27;20046;-47
2021/08/08 01:58:10;;;;;;;14.48;9.43;;;;;;;;;;2131553;27;20047;-47
2021/08/08 01:59:11;;;;;;;13.18;8.88;;;;;;;;;;2129505;27;20041;-47
2021/08/08 02:00:12;;;;;;;14.33;9.33;;;;;;;;;;2131130;27;20498;-47
2021/08/08 02:01:13;;;;;;;13.00;9.52;;;;;;;;;;2131284;27;20047;-49
2021/08/08 02:02:15;;;;;;;11.38;9.55;;;;;;;;;;2129615;27;20074;-46
2021/08/08 02:03:16;;;;;;;11.48;9.20;;;;;;;;;;2130962;27;20043;-47
2021/08/08 02:04:18;;;;;;;13.87;9.47;;;;;;;;;;2131411;27;20047;-47
2021/08/08 02:05:19;;;;;;;13.50;9.52;;;;;;;;;;2129197;27;20470;-47
2021/08/08 02:06:21;;;;;;;14.68;9.63;;;;;;;;;;2130293;27;20553;-48
2021/08/08 02:07:22;;;;;;;13.60;9.52;;;;;;;;;;2131237;27;20133;-46
2021/08/08 02:08:24;;;;;;;11.35;8.75;;;;;;;;;;2129207;27;20125;-47
2021/08/08 02:09:24;;;;;;;14.10;9.40;;;;;;;;;;2131226;27;20057;-46
2021/08/08 02:10:26;;;;;;;16.83;9.73;;;;;;;;;;2131511;27;20416;-46
2021/08/08 02:11:27;;;;;;;;;;;;;;;;;;2129347;27;20141;-47
2021/08/08 02:12:28;;;;;;;11.48;8.43;;;;;;;;;;2130944;27;20282;-46
2021/08/08 02:13:29;;;;;;;13.20;9.40;;;;;;;;;;2131523;27;20038;-47
2021/08/08 02:14:30;;;;;;;12.65;9.18;;;;;;;;;;2128977;27;20125;-47
2021/08/08 02:15:31;;;;;;;10.55;8.70;;;;;;;;;;2131598;27;20043;-50
2021/08/08 02:16:33;;;;;;;13.13;9.13;;;;;;;;;;2131187;27;20073;-46
2021/08/08 02:17:34;;;;;;;13.23;8.65;;;;;;;;;;2128832;27;20043;-49
2021/08/08 02:18:35;;;;;;;9.57;8.57;;;;;;;;;;2131033;27;20054;-47
2021/08/08 02:19:36;;;;;;;13.48;8.90;;;;;;;;;;2131104;27;20444;-47
2021/08/08 02:20:37;;;;;;;17.37;9.63;;;;;;;;;;2129199;27;20054;-47
2021/08/08 02:21:38;;;;;;;14.00;9.20;;;;;;;;;;2130922;27;20051;-47
2021/08/08 02:22:39;;;;;;;12.98;9.25;;;;;;;;;;2130644;27;20042;-46
2021/08/08 02:23:40;;;;;;;13.45;9.13;;;;;;;;;;2129181;27;20187;-49
2021/08/08 02:24:41;;;;;;;14.57;9.10;;;;;;;;;;2131533;27;20054;-47
2021/08/08 02:25:43;;;;;;;11.07;9.00;;;;;;;;;;2129155;27;20039;-47
2021/08/08 02:26:44;;;;;;;14.00;9.90;;;;;;;;;;2129748;27;20042;-46
2021/08/08 02:27:45;;;;;;;14.68;9.38;;;;;;;;;;2131183;27;20042;-48
2021/08/08 02:28:46;;;;;;;11.60;9.23;;;;;;;;;;2129711;27;20047;-47
2021/08/08 02:29:47;;;;;;;12.27;9.38;;;;;;;;;;2129679;27;20043;-47
2021/08/08 02:30:48;;;;;;;13.00;9.60;;;;;;;;;;2131326;27;20043;-47
2021/08/08 02:31:50;;;;;;;10.80;8.30;;;;;;;;;;2129130;27;20039;-47
2021/08/08 02:32:53;;;;;;;11.93;8.80;;;;;;;;;;2129735;27;20605;-48
2021/08/08 02:33:54;;;;;;;10.73;8.77;;;;;;;;;;2131240;27;20046;-47
2021/08/08 02:34:55;;;;;;;13.25;9.18;;;;;;;;;;2129099;27;20138;-46
2021/08/08 02:35:56;;;;;;;10.83;8.90;;;;;;;;;;2130889;27;20150;-46
2021/08/08 02:36:57;;;;;;;13.85;9.40;;;;;;;;;;2131189;27;20070;-46
2021/08/08 02:37:58;;;;;;;16.63;10.17;;;;;;;;;;2129031;27;20051;-46
2021/08/08 02:38:59;;;;;;;14.60;9.52;;;;;;;;;;2130787;27;20599;-46
2021/08/08 02:40:00;;;;;;;13.40;9.97;;;;;;;;;;2131323;27;20077;-47
2021/08/08 02:41:02;;;;;;;14.63;9.95;;;;;;;;;;2128975;27;20046;-46
2021/08/08 02:42:03;;;;;;;14.77;10.10;;;;;;;;;;2131276;27;20050;-47
2021/08/08 02:43:04;;;;;;;13.32;10.20;;;;;;;;;;2131040;27;20423;-47
2021/08/08 02:44:05;;;;;;;14.57;10.37;;;;;;;;;;2128927;27;20083;-47
2021/08/08 02:45:07;;;;;;;13.00;9.95;;;;;;;;;;2131008;27;20171;-47
2021/08/08 02:46:08;;;;;;;14.68;9.35;;;;;;;;;;2131197;27;20176;-48
2021/08/08 02:47:09;;;;;;;13.93;9.40;;;;;;;;;;2128856;27;20555;-49
2021/08/08 02:48:10;;;;;;;14.90;9.87;;;;;;;;;;2131088;27;20047;-47
2021/08/08 02:49:11;;;;;;;14.35;9.73;;;;;;;;;;2131270;27;20134;-47
2021/08/08 02:50:12;;;;;;;17.10;10.13;;;;;;;;;;2128707;27;20061;-47
2021/08/08 02:51:13;;;;;;;13.23;10.35;;;;;;;;;;2131052;27;20372;-47
2021/08/08 02:52:14;;;;;;;15.87;10.67;;;;;;;;;;2128493;27;20101;-47
2021/08/08 02:53:18;;;;;;;14.60;11.05;;;;;;;;;;2129301;27;20125;-49
2021/08/08 02:54:19;;;;;;;20.50;11.30;;;;;;;;;;2131023;27;20051;-48
2021/08/08 02:55:20;;;;;;;16.23;11.25;;;;;;;;;;2131026;27;20126;-46
2021/08/08 02:56:22;;;;;;;14.07;11.05;;;;;;;;;;2129386;27;20138;-47
2021/08/08 02:57:23;;;;;;;17.52;11.02;;;;;;;;;;2131015;27;20548;-46
2021/08/08 02:58:24;;;;;;;18.73;11.43;;;;;;;;;;2129752;27;20098;-46
2021/08/08 02:59:25;;;;;;;13.15;10.45;;;;;;;;;;2130045;27;20406;-46
2021/08/08 03:00:26;;;;;;;12.88;10.27;;;;;;;;;;2131241;27;20136;-46
2021/08/08 03:01:27;;;;;;;13.67;10.20;;;;;;;;;;2129013;27;20066;-48
2021/08/08 03:02:28;;;;;;;15.02;10.63;;;;;;;;;;2130490;27;20050;-45
2021/08/08 03:03:30;;;;;;;14.23;10.18;;;;;;;;;;2131020;27;20111;-47
2021/08/08 03:04:31;;;;;;;14.88;9.85;;;;;;;;;;2129071;27;20070;-47
2021/08/08 03:05:32;;;;;;;13.23;10.20;;;;;;;;;;2129833;27;20168;-46
2021/08/08 03:06:33;;;;;;;16.38;10.40;;;;;;;;;;2131091;27;20554;-46
2021/08/08 03:07:34;;;;;;;16.30;10.37;;;;;;;;;;2128953;27;20050;-46
2021/08/08 03:08:35;;;;;;;13.02;9.93;;;;;;;;;;2130555;27;20043;-46
2021/08/08 03:09:36;;;;;;;13.17;9.80;;;;;;;;;;2131215;27;20475;-46
2021/08/08 03:10:37;;;;;;;15.52;9.70;;;;;;;;;;2128856;27;20077;-46
2021/08/08 03:11:45;;;;;;;12.80;8.97;;;;;;;;;;2130844;27;20420;-48
2021/08/08 03:12:46;;;;;;;15.73;9.68;;;;;;;;;;2130668;27;20443;-46
2021/08/08 03:13:47;;;;;;;12.93;9.03;;;;;;;;;;2130247;27;20043;-46
2021/08/08 03:14:48;;;;;;;14.73;10.13;;;;;;;;;;2132373;27;20095;-46
2021/08/08 03:15:49;;;;;;;15.53;10.03;;;;;;;;;;2132499;27;20084;-46
2021/08/08 03:16:50;;;;;;;15.77;11.00;;;;;;;;;;2129897;27;20050;-47
2021/08/08 03:17:51;;;;;;;17.43;10.60;;;;;;;;;;2132489;27;20126;-46
2021/08/08 03:18:52;;;;;;;13.90;11.05;;;;;;;;;;2132652;27;20042;-46
2021/08/08 03:19:54;;;;;;;13.93;10.67;;;;;;;;;;2130046;27;20050;-48
2021/08/08 03:20:54;;;;;;;13.18;10.82;;;;;;;;;;2132575;27;20129;-46
2021/08/08 03:21:56;;;;;;;16.00;11.03;;;;;;;;;;2132048;27;20043;-46
2021/08/08 03:22:56;;;;;;;18.02;11.40;;;;;;;;;;2130438;27;20110;-47
2021/08/08 03:23:58;;;;;;;14.93;11.27;;;;;;;;;;2132253;27;20542;-47
2021/08/08 03:24:58;;;;;;;14.15;10.88;;;;;;;;;;2131998;27;20172;-46
2021/08/08 03:26:00;;;;;;;18.13;11.77;;;;;;;;;;2129489;27;20111;-46
2021/08/08 03:27:01;;;;;;;14.68;10.40;;;;;;;;;;2132391;27;20517;-47
2021/08/08 03:28:02;;;;;;;14.70;11.45;;;;;;;;;;2131417;27;20145;-46
2021/08/08 03:29:03;;;;;;;14.00;10.98;;;;;;;;;;2131148;27;20126;-46
2021/08/08 03:30:06;;;;;;;14.13;11.10;;;;;;;;;;2132573;27;20131;-46
2021/08/08 03:31:07;;;;;;;15.80;10.73;;;;;;;;;;2130251;27;20142;-45
2021/08/08 03:32:08;;;;;;;17.48;10.88;;;;;;;;;;2131889;27;20057;-47
2021/08/08 03:33:09;;;;;;;15.30;11.13;;;;;;;;;;2132434;27;20043;-49
2021/08/08 03:34:10;;;;;;;15.73;11.32;;;;;;;;;;2130406;27;20508;-46
2021/08/08 03:35:11;;;;;;;17.37;10.87;;;;;;;;;;2130931;27;20050;-46
2021/08/08 03:36:12;;;;;;;14.55;10.68;;;;;;;;;;2132513;27;20130;-47
2021/08/08 03:37:13;;;;;;;15.38;11.40;;;;;;;;;;2130291;27;20104;-48
2021/08/08 03:38:14;;;;;;;13.37;10.53;;;;;;;;;;2131996;27;20111;-46
2021/08/08 03:39:16;;;;;;;12.82;10.30;;;;;;;;;;2132451;27;20130;-46
2021/08/08 03:40:18;;;;;;;22.58;11.00;;;;;;;;;;2130027;27;20578;-46
2021/08/08 03:41:18;;;;;;;13.48;11.73;;;;;;;;;;2132281;27;20126;-49
2021/08/08 03:42:20;;;;;;;11.60;10.20;;;;;;;;;;2132277;27;20082;-47
2021/08/08 03:43:21;;;;;;;14.60;10.90;;;;;;;;;;2130021;27;20038;-46
2021/08/08 03:44:22;;;;;;;18.03;11.30;;;;;;;;;;2131021;27;20134;-47
2021/08/08 03:45:23;;;;;;;12.25;10.20;;;;;;;;;;2132398;27;20129;-46
2021/08/08 03:46:24;;;;;;;12.57;10.70;;;;;;;;;;2129950;27;20047;-46
2021/08/08 03:47:25;;;;;;;13.68;10.93;;;;;;;;;;2132195;27;20138;-49
2021/08/08 03:48:26;;;;;;;17.20;11.67;;;;;;;;;;2132256;27;20050;-46
2021/08/08 03:49:27;;;;;;;12.00;10.00;;;;;;;;;;2128738;27;20281;-48
2021/08/08 03:50:28;;;;;;;14.60;11.00;;;;;;;;;;2132482;27;20475;-47
2021/08/08 03:51:29;;;;;;;15.30;10.50;;;;;;;;;;2132174;27;20126;-46
2021/08/08 03:52:30;;;;;;;13.83;10.50;;;;;;;;;;2127428;27;20050;-47
2021/08/08 03:53:31;;;;;;;13.02;10.43;;;;;;;;;;2132177;27;20126;-49
2021/08/08 03:54:32;;;;;;;15.73;11.67;;;;;;;;;;2132067;27;20075;-47
2021/08/08 03:55:33;;;;;;;16.92;11.25;;;;;;;;;;2130242;27;20177;-47
2021/08/08 03:56:35;;;;;;;13.50;10.95;;;;;;;;;;2132414;27;20046;-49
2021/08/08 03:57:36;;;;;;;16.90;12.63;;;;;;;;;;2131788;27;20082;-47
2021/08/08 03:58:37;;;;;;;17.98;11.48;;;;;;;;;;2130250;27;20126;-49
2021/08/08 03:59:38;;;;;;;12.10;10.85;;;;;;;;;;2132286;27;20125;-48
2021/08/08 04:00:39;;;;;;;13.52;10.93;;;;;;;;;;2131412;27;20126;-47
2021/08/08 04:01:40;;;;;;;13.88;10.48;;;;;;;;;;2130834;27;20595;-48
2021/08/08 04:02:42;;;;;;;16.55;12.52;;;;;;;;;;2132068;27;20038;-49
2021/08/08 04:03:43;;;;;;;19.10;11.57;;;;;;;;;;2130535;27;20046;-48
2021/08/08 04:04:44;;;;;;;14.23;11.23;;;;;;;;;;2130536;27;20600;-48
2021/08/08 04:05:45;;;;;;;15.70;11.63;;;;;;;;;;2132256;27;20054;-46
2021/08/08 04:06:46;;;;;;;15.00;11.30;;;;;;;;;;2130149;27;20134;-46
2021/08/08 04:07:47;;;;;;;14.90;11.00;;;;;;;;;;2131770;27;20125;-49
2021/08/08 04:08:49;;;;;;;18.00;10.25;;;;;;;;;;2131977;27;20395;-49
2021/08/08 04:09:49;;;;;;;14.20;11.52;;;;;;;;;;2125730;27;20610;-47
2021/08/08 04:10:51;;;;;;;16.00;10.83;;;;;;;;;;2125540;27;20042;-46
2021/08/08 04:11:51;;;;;;;14.10;10.73;;;;;;;;;;2124001;27;20043;-48
2021/08/08 04:12:53;;;;;;;13.73;10.50;;;;;;;;;;2125491;27;20076;-46
2021/08/08 04:13:54;;;;;;;12.80;9.95;;;;;;;;;;2129488;27;20049;-48
2021/08/08 04:14:55;;;;;;;14.00;11.03;;;;;;;;;;2131816;27;20404;-47
2021/08/08 04:15:56;;;;;;;13.57;10.20;;;;;;;;;;2128888;27;20049;-46
2021/08/08 04:16:57;;;;;;;14.30;10.52;;;;;;;;;;2131042;27;20495;-48
2021/08/08 04:17:58;;;;;;;11.43;9.60;;;;;;;;;;2131727;27;20069;-48
2021/08/08 04:18:59;;;;;;;14.15;9.75;;;;;;;;;;2129252;27;20134;-47
2021/08/08 04:20:00;;;;;;;12.68;8.98;;;;;;;;;;2131344;27;20077;-48
2021/08/08 04:21:01;;;;;;;10.70;8.67;;;;;;;;;;2131848;27;20095;-47
2021/08/08 04:22:03;;;;;;;13.65;8.00;;;;;;;;;;2129641;27;20046;-47
2021/08/08 04:23:04;;;;;;;11.73;9.70;;;;;;;;;;2131757;27;20165;-47
2021/08/08 04:24:05;;;;;;;10.85;9.55;;;;;;;;;;2131795;27;20042;-48
2021/08/08 04:25:06;;;;;;;16.13;9.33;;;;;;;;;;2128531;27;20053;-47
2021/08/08 04:26:07;;;;;;;11.15;9.10;;;;;;;;;;2131836;27;20439;-47
2021/08/08 04:27:08;;;;;;;13.03;9.17;;;;;;;;;;2131698;27;20050;-50
2021/08/08 04:28:10;;;;;;;11.63;9.18;;;;;;;;;;2129517;27;20521;-47
2021/08/08 04:29:10;;;;;;;10.35;8.55;;;;;;;;;;2132000;27;20055;-50
2021/08/08 04:30:12;;;;;;;12.50;8.60;;;;;;;;;;2131529;27;20051;-47
2021/08/08 04:31:13;;;;;;;10.90;8.55;;;;;;;;;;2128180;27;20073;-47
2021/08/08 04:32:14;;;;;;;11.93;8.73;;;;;;;;;;2131933;27;20380;-47
2021/08/08 04:33:15;;;;;;;11.70;8.98;;;;;;;;;;2131641;27;20134;-48
2021/08/08 04:34:16;;;;;;;12.10;9.27;;;;;;;;;;2130350;27;20050;-47
2021/08/08 04:35:17;;;;;;;11.52;8.70;;;;;;;;;;2132051;27;20051;-46
2021/08/08 04:36:18;;;;;;;14.47;8.93;;;;;;;;;;2130633;27;20455;-50
2021/08/08 04:37:19;;;;;;;9.85;7.40;;;;;;;;;;2130404;27;20053;-47
2021/08/08 04:38:20;;;;;;;11.57;8.80;;;;;;;;;;2131541;27;20046;-47
2021/08/08 04:39:21;;;;;;;11.90;8.85;;;;;;;;;;2129957;27;20138;-47
2021/08/08 04:40:22;;;;;;;12.23;8.43;;;;;;;;;;2131418;27;20049;-46
2021/08/08 04:41:23;;;;;;;10.80;7.50;;;;;;;;;;2131859;27;20477;-49
2021/08/08 04:42:27;;;;;;;9.82;8.77;;;;;;;;;;2129987;27;20045;-48
2021/08/08 04:43:29;;;;;;;9.57;7.32;;;;;;;;;;2130734;27;20124;-48
2021/08/08 04:44:30;;;;;;;9.88;7.13;;;;;;;;;;2132000;27;20125;-50
2021/08/08 04:45:31;;;;;;;9.30;7.43;;;;;;;;;;2129983;27;20096;-47
2021/08/08 04:46:32;;;;;;;9.52;6.68;;;;;;;;;;2130740;27;20047;-50
2021/08/08 04:47:33;;;;;;;9.90;6.90;;;;;;;;;;2131808;27;20535;-50
2021/08/08 04:48:34;;;;;;;9.98;6.70;;;;;;;;;;2129841;27;20287;-48
2021/08/08 04:49:35;;;;;;;8.65;7.10;;;;;;;;;;2131540;27;20486;-48
2021/08/08 04:50:36;;;;;;;8.97;6.70;;;;;;;;;;2131838;27;20050;-47
2021/08/08 04:51:37;;;;;;;10.40;6.72;;;;;;;;;;2129463;27;20091;-47
2021/08/08 04:52:39;;;;;;;7.97;6.50;;;;;;;;;;2125991;27;20050;-49
2021/08/08 04:53:39;;;;;;;8.75;6.18;;;;;;;;;;2123166;27;20061;-47
2021/08/08 04:54:41;;;;;;;7.83;6.63;;;;;;;;;;2128194;27;20039;-49
2021/08/08 04:55:42;;;;;;;8.95;6.35;;;;;;;;;;2132158;27;20046;-47
2021/08/08 04:56:45;;;;;;;8.67;6.87;;;;;;;;;;2131784;27;20487;-48
2021/08/08 04:57:46;;;;;;;10.68;6.35;;;;;;;;;;2127956;27;20138;-48
2021/08/08 04:58:48;;;;;;;6.63;5.18;;;;;;;;;;2131738;27;20038;-50
2021/08/08 04:59:49;;;;;;;7.65;5.28;;;;;;;;;;2131362;27;20491;-51
2021/08/08 05:00:50;;;;;;;8.63;5.97;;;;;;;;;;2129790;27;20056;-48
2021/08/08 05:01:51;;;;;;;8.38;5.28;;;;;;;;;;2131611;27;20372;-50
2021/08/08 05:02:52;;;;;;;10.85;5.78;;;;;;;;;;2131302;27;20070;-51
2021/08/08 05:03:53;;;;;;;6.00;4.70;;;;;;;;;;2129874;27;20513;-47
2021/08/08 05:04:55;;;;;;;9.23;5.60;;;;;;;;;;2131799;27;20046;-48
2021/08/08 05:05:55;;;;;;;9.50;5.65;;;;;;;;;;2125569;27;20160;-48
2021/08/08 05:06:56;;;;;;;8.47;5.37;;;;;;;;;;2130265;27;20133;-48
2021/08/08 05:07:57;;;;;;;7.50;4.88;;;;;;;;;;2131630;27;20569;-47
2021/08/08 05:08:58;;;;;;;8.77;4.77;;;;;;;;;;2130192;27;20051;-49
2021/08/08 05:09:59;;;;;;;6.13;4.43;;;;;;;;;;2130980;27;20039;-48
2021/08/08 05:11:00;;;;;;;5.87;4.53;;;;;;;;;;2131904;27;20083;-49
2021/08/08 05:12:01;;;;;;;6.68;4.28;;;;;;;;;;2128813;27;20546;-48
2021/08/08 05:13:02;;;;;;;5.73;4.17;;;;;;;;;;2131280;27;20081;-47
2021/08/08 05:14:04;;;;;;;12.55;4.55;;;;;;;;;;2131638;27;20822;-48
2021/08/08 05:15:06;;;;;;;8.48;3.90;;;;;;;;;;2129894;27;20052;-48
2021/08/08 05:16:07;;;;;;;5.13;3.83;;;;;;;;;;2131267;27;20065;-48
2021/08/08 05:17:08;;;;;;;4.57;3.28;;;;;;;;;;2131672;27;20110;-48
2021/08/08 05:18:09;;;;;;;5.20;3.80;;;;;;;;;;2129353;27;20196;-48
2021/08/08 05:19:10;;;;;;;4.20;3.30;;;;;;;;;;2130346;27;20099;-49
2021/08/08 05:20:12;;;;;;;3.47;3.17;;;;;;;;;;2131776;27;20394;-48
2021/08/08 05:21:13;;;;;;;8.18;3.47;;;;;;;;;;2129441;27;20152;-49
2021/08/08 05:22:14;;;;;;;3.45;3.15;;;;;;;;;;2131463;27;20047;-50
2021/08/08 05:23:15;;;;;;;4.13;3.43;;;;;;;;;;2131668;27;20126;-52
2021/08/08 05:24:18;;;;;;;4.15;3.20;;;;;;;;;;2129418;27;20343;-51
2021/08/08 05:25:19;;;;;;;4.32;3.00;;;;;;;;;;2131436;27;20053;-51
2021/08/08 05:26:20;;;;;;;3.20;2.90;;;;;;;;;;2131747;27;20126;-50
2021/08/08 05:27:21;;;;;;;3.83;3.13;;;;;;;;;;2129353;27;20045;-49
2021/08/08 05:28:22;;;;;;;4.10;3.35;;;;;;;;;;2131636;27;20141;-49
2021/08/08 05:29:24;;;;;;;4.28;3.13;;;;;;;;;;2131722;27;20474;-47
2021/08/08 05:30:25;;;;;;;5.45;3.20;;;;;;;;;;2129147;27;20070;-48
2021/08/08 05:31:26;;;;;;;4.87;3.10;;;;;;;;;;2131461;27;20071;-49
2021/08/08 05:32:27;;;;;;;5.63;3.10;;;;;;;;;;2131102;27;20434;-50
2021/08/08 05:33:28;;;;;;;3.40;3.03;;;;;;;;;;2129609;27;20076;-50
2021/08/08 05:34:29;;;;;;;3.33;2.95;;;;;;;;;;2131725;27;20287;-46
2021/08/08 05:35:30;;;;;;;8.20;3.50;;;;;;;;;;2131142;27;20483;-47
2021/08/08 05:36:31;;;;;;;3.35;3.00;;;;;;;;;;2128681;27;20130;-48
2021/08/08 05:37:32;;;;;;;5.57;3.00;;;;;;;;;;2131254;27;20046;-48
2021/08/08 05:38:33;;;;;;;3.88;2.95;;;;;;;;;;2130903;27;20047;-49
2021/08/08 05:39:34;;;;;;;5.37;3.80;;;;;;;;;;2130025;27;20042;-47
2021/08/08 05:40:35;;;;;;;5.50;3.45;;;;;;;;;;2131561;27;20122;-49
2021/08/08 05:41:36;;;;;;;5.18;3.75;;;;;;;;;;2130087;27;20126;-50
2021/08/08 05:42:37;;;;;;;4.07;3.40;;;;;;;;;;2130288;27;20459;-47
2021/08/08 05:43:38;;;;;;;3.53;3.15;;;;;;;;;;2131284;27;20129;-51
2021/08/08 05:44:40;;;;;;;3.58;3.25;;;;;;;;;;2129502;27;20046;-46
2021/08/08 05:45:46;;;;;;;;;;;;;;;;;;2131373;27;20066;-49
2021/08/08 05:46:47;;;;;;;3.97;3.13;;;;;;;;;;2131467;27;19919;-49
2021/08/08 05:47:48;;;;;;;4.20;3.22;;;;;;;;;;2129483;27;20039;-47
2021/08/08 05:48:49;;;;;;;5.88;3.35;;;;;;;;;;2130971;27;20491;-51
2021/08/08 05:49:50;;;;;;;4.35;2.92;;;;;;;;;;2131410;27;20038;-50
2021/08/08 05:50:51;;;;;;;3.50;3.20;;;;;;;;;;2129058;27;20471;-50
2021/08/08 05:51:52;;;;;;;3.20;2.65;;;;;;;;;;2131025;27;20402;-48
2021/08/08 05:52:53;;;;;;;5.60;2.93;;;;;;;;;;2129713;27;20053;-50
2021/08/08 05:53:55;;;;;;;4.35;2.70;;;;;;;;;;2129330;27;20285;-47
2021/08/08 05:54:56;;;;;;;6.28;2.83;;;;;;;;;;2131182;27;20481;-47
2021/08/08 05:55:57;;;;;;;4.90;3.37;;;;;;;;;;2131282;27;20039;-47
2021/08/08 05:56:58;;;;;;;3.33;2.40;;;;;;;;;;2129699;27;20082;-47
2021/08/08 05:57:59;;;;;;;4.28;3.03;;;;;;;;;;2130499;27;20395;-47
2021/08/08 05:59:00;;;;;;;4.03;2.58;;;;;;;;;;2130652;27;20414;-46
2021/08/08 06:00:02;;;;;;;2.87;2.37;;;;;;;;;;2128955;27;20042;-49
2021/08/08 06:01:03;;;;;;;3.88;2.33;;;;;;;;;;2128603;27;20126;-47
2021/08/08 06:02:04;;;;;;;3.33;2.15;;;;;;;;;;2128274;27;20042;-50
2021/08/08 06:03:06;;;;;;;3.17;2.10;;;;;;;;;;2127979;27;20509;-48
2021/08/08 06:04:07;;;;;;;3.08;2.00;;;;;;;;;;2130433;27;20042;-50